sensor_id;sensor_type;location;lat;lon;timestamp;P1;durP1;ratioP1;P2;durP2;ratioP2
5871;SDS011;2962;51.312;7.378;2023-05-27T00:02:01;16.97;;;4.80;;
5871;SDS011;2962;51.312;7.378;2023-05-27T00:04:26;23.50;;;4.63;;
5871;SDS011;2962;51.312;7.378;2023-05-27T00:06:52;20.23;;;4.50;;
5871;SDS011;2962;51.312;7.378;2023-05-27T00:09:18;25.27;;;7.30;;
5871;SDS011;2962;51.312;7.378;2023-05-27T00:11:43;13.90;;;4.73;;
5871;SDS011;2962;51.312;7.378;2023-05-27T00:14:09;14.17;;;4.70;;
5871;SDS011;2962;51.312;7.378;2023-05-27T00:16:34;16.83;;;4.67;;
5871;SDS011;2962;51.312;7.378;2023-05-27T00:19:02;17.27;;;5.10;;
5871;SDS011;2962;51.312;7.378;2023-05-27T00:21:28;21.83;;;4.80;;
5871;SDS011;2962;51.312;7.378;2023-05-27T00:23:53;15.87;;;4.63;;
5871;SDS011;2962;51.312;7.378;2023-05-27T00:26:18;14.93;;;5.30;;
5871;SDS011;2962;51.312;7.378;2023-05-27T00:28:44;18.70;;;5.00;;
5871;SDS011;2962;51.312;7.378;2023-05-27T00:31:09;21.77;;;4.60;;
5871;SDS011;2962;51.312;7.378;2023-05-27T00:33:34;21.00;;;6.13;;
5871;SDS011;2962;51.312;7.378;2023-05-27T00:35:59;18.80;;;5.20;;
5871;SDS011;2962;51.312;7.378;2023-05-27T00:38:25;17.90;;;3.93;;
5871;SDS011;2962;51.312;7.378;2023-05-27T00:40:50;30.83;;;5.43;;
5871;SDS011;2962;51.312;7.378;2023-05-27T00:43:18;15.30;;;4.20;;
5871;SDS011;2962;51.312;7.378;2023-05-27T00:45:43;15.00;;;5.27;;
5871;SDS011;2962;51.312;7.378;2023-05-27T00:48:08;12.80;;;4.10;;
5871;SDS011;2962;51.312;7.378;2023-05-27T00:50:34;29.77;;;4.67;;
5871;SDS011;2962;51.312;7.378;2023-05-27T00:53:00;23.67;;;5.40;;
5871;SDS011;2962;51.312;7.378;2023-05-27T00:55:25;18.30;;;5.10;;
5871;SDS011;2962;51.312;7.378;2023-05-27T00:57:51;17.73;;;4.80;;
5871;SDS011;2962;51.312;7.378;2023-05-27T01:00:20;15.77;;;5.03;;
5871;SDS011;2962;51.312;7.378;2023-05-27T01:02:46;27.67;;;6.93;;
5871;SDS011;2962;51.312;7.378;2023-05-27T01:05:13;23.07;;;5.00;;
5871;SDS011;2962;51.312;7.378;2023-05-27T01:10:20;15.90;;;4.57;;
5871;SDS011;2962;51.312;7.378;2023-05-27T01:12:59;12.20;;;4.27;;
5871;SDS011;2962;51.312;7.378;2023-05-27T01:15:27;19.63;;;5.57;;
5871;SDS011;2962;51.312;7.378;2023-05-27T01:17:57;20.00;;;5.50;;
5871;SDS011;2962;51.312;7.378;2023-05-27T01:20:26;18.60;;;5.20;;
5871;SDS011;2962;51.312;7.378;2023-05-27T01:22:54;17.03;;;5.77;;
5871;SDS011;2962;51.312;7.378;2023-05-27T01:25:22;18.10;;;5.90;;
5871;SDS011;2962;51.312;7.378;2023-05-27T01:27:47;17.60;;;5.83;;
5871;SDS011;2962;51.312;7.378;2023-05-27T01:30:13;21.10;;;5.43;;
5871;SDS011;2962;51.312;7.378;2023-05-27T01:37:56;21.23;;;5.93;;
5871;SDS011;2962;51.312;7.378;2023-05-27T01:40:25;21.00;;;5.87;;
5871;SDS011;2962;51.312;7.378;2023-05-27T01:42:52;17.53;;;5.53;;
5871;SDS011;2962;51.312;7.378;2023-05-27T01:45:17;23.20;;;6.20;;
5871;SDS011;2962;51.312;7.378;2023-05-27T01:47:43;23.90;;;5.70;;
5871;SDS011;2962;51.312;7.378;2023-05-27T01:50:10;25.17;;;6.17;;
5871;SDS011;2962;51.312;7.378;2023-05-27T01:52:35;16.17;;;6.27;;
5871;SDS011;2962;51.312;7.378;2023-05-27T01:55:00;24.97;;;6.17;;
5871;SDS011;2962;51.312;7.378;2023-05-27T01:57:26;21.63;;;5.90;;
5871;SDS011;2962;51.312;7.378;2023-05-27T01:59:51;23.37;;;6.00;;
5871;SDS011;2962;51.312;7.378;2023-05-27T02:02:17;19.53;;;6.10;;
5871;SDS011;2962;51.312;7.378;2023-05-27T02:04:42;23.63;;;6.43;;
5871;SDS011;2962;51.312;7.378;2023-05-27T02:07:07;14.37;;;5.73;;
5871;SDS011;2962;51.312;7.378;2023-05-27T02:09:32;15.73;;;6.10;;
5871;SDS011;2962;51.312;7.378;2023-05-27T02:11:58;26.37;;;5.63;;
5871;SDS011;2962;51.312;7.378;2023-05-27T02:14:23;20.17;;;5.73;;
5871;SDS011;2962;51.312;7.378;2023-05-27T02:16:48;15.57;;;5.63;;
5871;SDS011;2962;51.312;7.378;2023-05-27T02:19:14;15.50;;;5.90;;
5871;SDS011;2962;51.312;7.378;2023-05-27T02:21:40;36.03;;;7.13;;
5871;SDS011;2962;51.312;7.378;2023-05-27T02:24:05;24.03;;;6.47;;
5871;SDS011;2962;51.312;7.378;2023-05-27T02:26:31;18.70;;;5.40;;
5871;SDS011;2962;51.312;7.378;2023-05-27T02:28:56;16.13;;;6.27;;
5871;SDS011;2962;51.312;7.378;2023-05-27T02:31:22;19.50;;;7.00;;
5871;SDS011;2962;51.312;7.378;2023-05-27T02:33:47;26.50;;;7.00;;
5871;SDS011;2962;51.312;7.378;2023-05-27T02:36:12;16.73;;;6.47;;
5871;SDS011;2962;51.312;7.378;2023-05-27T02:38:38;31.67;;;7.00;;
5871;SDS011;2962;51.312;7.378;2023-05-27T02:41:03;21.27;;;7.37;;
5871;SDS011;2962;51.312;7.378;2023-05-27T02:43:28;18.77;;;6.53;;
5871;SDS011;2962;51.312;7.378;2023-05-27T02:45:54;22.83;;;7.50;;
5871;SDS011;2962;51.312;7.378;2023-05-27T02:48:19;20.73;;;6.50;;
5871;SDS011;2962;51.312;7.378;2023-05-27T02:50:45;21.07;;;7.67;;
5871;SDS011;2962;51.312;7.378;2023-05-27T02:53:10;27.73;;;7.23;;
5871;SDS011;2962;51.312;7.378;2023-05-27T02:55:35;19.67;;;7.50;;
5871;SDS011;2962;51.312;7.378;2023-05-27T02:58:00;28.10;;;6.93;;
5871;SDS011;2962;51.312;7.378;2023-05-27T03:00:26;21.83;;;7.00;;
5871;SDS011;2962;51.312;7.378;2023-05-27T03:02:52;28.90;;;7.03;;
5871;SDS011;2962;51.312;7.378;2023-05-27T03:05:17;26.40;;;7.70;;
5871;SDS011;2962;51.312;7.378;2023-05-27T03:07:42;26.97;;;7.80;;
5871;SDS011;2962;51.312;7.378;2023-05-27T03:10:07;20.00;;;6.77;;
5871;SDS011;2962;51.312;7.378;2023-05-27T03:12:33;33.10;;;8.40;;
5871;SDS011;2962;51.312;7.378;2023-05-27T03:14:59;18.83;;;6.70;;
5871;SDS011;2962;51.312;7.378;2023-05-27T03:17:24;25.67;;;7.10;;
5871;SDS011;2962;51.312;7.378;2023-05-27T03:19:50;21.20;;;8.37;;
5871;SDS011;2962;51.312;7.378;2023-05-27T03:22:15;26.83;;;7.73;;
5871;SDS011;2962;51.312;7.378;2023-05-27T03:24:41;20.80;;;7.23;;
5871;SDS011;2962;51.312;7.378;2023-05-27T03:27:06;31.33;;;7.90;;
5871;SDS011;2962;51.312;7.378;2023-05-27T03:29:32;27.77;;;7.63;;
5871;SDS011;2962;51.312;7.378;2023-05-27T03:31:58;28.52;;;8.82;;
5871;SDS011;2962;51.312;7.378;2023-05-27T03:34:23;28.80;;;8.40;;
5871;SDS011;2962;51.312;7.378;2023-05-27T03:36:49;27.10;;;8.27;;
5871;SDS011;2962;51.312;7.378;2023-05-27T03:39:15;24.53;;;8.87;;
5871;SDS011;2962;51.312;7.378;2023-05-27T03:41:41;24.13;;;7.80;;
5871;SDS011;2962;51.312;7.378;2023-05-27T03:44:07;29.93;;;8.17;;
5871;SDS011;2962;51.312;7.378;2023-05-27T03:46:32;22.50;;;7.47;;
5871;SDS011;2962;51.312;7.378;2023-05-27T03:48:58;23.90;;;7.37;;
5871;SDS011;2962;51.312;7.378;2023-05-27T03:51:23;23.93;;;7.20;;
5871;SDS011;2962;51.312;7.378;2023-05-27T03:53:49;19.03;;;7.00;;
5871;SDS011;2962;51.312;7.378;2023-05-27T03:56:14;25.33;;;7.13;;
5871;SDS011;2962;51.312;7.378;2023-05-27T03:58:40;21.00;;;7.70;;
5871;SDS011;2962;51.312;7.378;2023-05-27T04:01:05;17.50;;;7.47;;
5871;SDS011;2962;51.312;7.378;2023-05-27T04:03:31;22.37;;;8.57;;
5871;SDS011;2962;51.312;7.378;2023-05-27T04:05:56;23.27;;;7.57;;
5871;SDS011;2962;51.312;7.378;2023-05-27T04:08:22;26.60;;;8.40;;
5871;SDS011;2962;51.312;7.378;2023-05-27T04:10:51;24.60;;;7.80;;
5871;SDS011;2962;51.312;7.378;2023-05-27T04:13:17;35.23;;;8.20;;
5871;SDS011;2962;51.312;7.378;2023-05-27T04:15:43;23.17;;;7.60;;
5871;SDS011;2962;51.312;7.378;2023-05-27T04:18:09;22.93;;;7.80;;
5871;SDS011;2962;51.312;7.378;2023-05-27T04:20:36;21.27;;;6.83;;
5871;SDS011;2962;51.312;7.378;2023-05-27T04:23:06;26.90;;;6.77;;
5871;SDS011;2962;51.312;7.378;2023-05-27T04:25:32;21.47;;;7.63;;
5871;SDS011;2962;51.312;7.378;2023-05-27T04:27:57;24.57;;;8.50;;
5871;SDS011;2962;51.312;7.378;2023-05-27T04:30:23;18.50;;;7.43;;
5871;SDS011;2962;51.312;7.378;2023-05-27T04:32:48;29.07;;;7.20;;
5871;SDS011;2962;51.312;7.378;2023-05-27T04:35:13;28.00;;;7.43;;
5871;SDS011;2962;51.312;7.378;2023-05-27T04:37:39;18.47;;;6.40;;
5871;SDS011;2962;51.312;7.378;2023-05-27T04:40:06;23.53;;;7.57;;
5871;SDS011;2962;51.312;7.378;2023-05-27T04:42:33;20.43;;;7.33;;
5871;SDS011;2962;51.312;7.378;2023-05-27T04:45:01;18.83;;;6.90;;
5871;SDS011;2962;51.312;7.378;2023-05-27T04:47:28;23.23;;;7.40;;
5871;SDS011;2962;51.312;7.378;2023-05-27T04:49:55;15.27;;;7.13;;
5871;SDS011;2962;51.312;7.378;2023-05-27T04:52:21;14.97;;;6.83;;
5871;SDS011;2962;51.312;7.378;2023-05-27T04:54:48;19.33;;;6.30;;
5871;SDS011;2962;51.312;7.378;2023-05-27T04:57:13;24.10;;;7.40;;
5871;SDS011;2962;51.312;7.378;2023-05-27T04:59:46;15.50;;;6.80;;
5871;SDS011;2962;51.312;7.378;2023-05-27T05:02:43;20.23;;;6.73;;
5871;SDS011;2962;51.312;7.378;2023-05-27T05:05:11;29.70;;;7.90;;
5871;SDS011;2962;51.312;7.378;2023-05-27T05:07:37;24.10;;;6.17;;
5871;SDS011;2962;51.312;7.378;2023-05-27T05:10:09;16.77;;;7.33;;
5871;SDS011;2962;51.312;7.378;2023-05-27T05:12:35;15.93;;;6.83;;
5871;SDS011;2962;51.312;7.378;2023-05-27T05:15:01;20.17;;;6.30;;
5871;SDS011;2962;51.312;7.378;2023-05-27T05:17:27;16.07;;;6.03;;
5871;SDS011;2962;51.312;7.378;2023-05-27T05:19:52;18.23;;;5.60;;
5871;SDS011;2962;51.312;7.378;2023-05-27T05:22:18;21.83;;;6.53;;
5871;SDS011;2962;51.312;7.378;2023-05-27T05:24:44;17.93;;;6.80;;
5871;SDS011;2962;51.312;7.378;2023-05-27T05:27:11;27.03;;;8.13;;
5871;SDS011;2962;51.312;7.378;2023-05-27T05:29:36;22.50;;;6.60;;
5871;SDS011;2962;51.312;7.378;2023-05-27T05:32:01;22.87;;;6.50;;
5871;SDS011;2962;51.312;7.378;2023-05-27T05:34:27;19.57;;;6.70;;
5871;SDS011;2962;51.312;7.378;2023-05-27T05:36:52;16.63;;;5.53;;
5871;SDS011;2962;51.312;7.378;2023-05-27T05:39:17;21.80;;;6.30;;
5871;SDS011;2962;51.312;7.378;2023-05-27T05:41:43;24.30;;;8.00;;
5871;SDS011;2962;51.312;7.378;2023-05-27T05:44:08;24.90;;;6.03;;
5871;SDS011;2962;51.312;7.378;2023-05-27T05:46:33;20.33;;;6.60;;
5871;SDS011;2962;51.312;7.378;2023-05-27T05:48:59;14.60;;;5.20;;
5871;SDS011;2962;51.312;7.378;2023-05-27T05:51:24;19.20;;;5.87;;
5871;SDS011;2962;51.312;7.378;2023-05-27T05:53:49;24.73;;;7.33;;
5871;SDS011;2962;51.312;7.378;2023-05-27T05:56:15;21.13;;;6.57;;
5871;SDS011;2962;51.312;7.378;2023-05-27T05:58:40;18.00;;;5.77;;
5871;SDS011;2962;51.312;7.378;2023-05-27T06:01:05;17.47;;;5.90;;
5871;SDS011;2962;51.312;7.378;2023-05-27T06:03:30;15.00;;;5.97;;
5871;SDS011;2962;51.312;7.378;2023-05-27T06:05:56;15.20;;;5.97;;
5871;SDS011;2962;51.312;7.378;2023-05-27T06:08:21;13.37;;;5.87;;
5871;SDS011;2962;51.312;7.378;2023-05-27T06:10:46;20.40;;;5.60;;
5871;SDS011;2962;51.312;7.378;2023-05-27T06:13:11;13.50;;;5.57;;
5871;SDS011;2962;51.312;7.378;2023-05-27T06:15:37;11.23;;;5.20;;
5871;SDS011;2962;51.312;7.378;2023-05-27T06:18:03;23.40;;;6.13;;
5871;SDS011;2962;51.312;7.378;2023-05-27T06:20:29;29.50;;;6.73;;
5871;SDS011;2962;51.312;7.378;2023-05-27T06:22:54;13.37;;;4.60;;
5871;SDS011;2962;51.312;7.378;2023-05-27T06:25:19;14.80;;;5.03;;
5871;SDS011;2962;51.312;7.378;2023-05-27T06:27:45;16.77;;;5.33;;
5871;SDS011;2962;51.312;7.378;2023-05-27T06:30:10;14.40;;;4.60;;
5871;SDS011;2962;51.312;7.378;2023-05-27T06:32:36;13.70;;;5.70;;
5871;SDS011;2962;51.312;7.378;2023-05-27T06:35:01;12.70;;;4.37;;
5871;SDS011;2962;51.312;7.378;2023-05-27T06:37:26;14.17;;;4.73;;
5871;SDS011;2962;51.312;7.378;2023-05-27T06:39:52;11.17;;;4.80;;
5871;SDS011;2962;51.312;7.378;2023-05-27T06:42:17;11.90;;;5.13;;
5871;SDS011;2962;51.312;7.378;2023-05-27T06:44:43;20.87;;;4.83;;
5871;SDS011;2962;51.312;7.378;2023-05-27T06:47:09;14.53;;;4.57;;
5871;SDS011;2962;51.312;7.378;2023-05-27T06:49:35;13.10;;;4.80;;
5871;SDS011;2962;51.312;7.378;2023-05-27T06:52:01;12.47;;;4.27;;
5871;SDS011;2962;51.312;7.378;2023-05-27T06:54:26;9.13;;;4.70;;
5871;SDS011;2962;51.312;7.378;2023-05-27T06:56:51;8.00;;;4.27;;
5871;SDS011;2962;51.312;7.378;2023-05-27T06:59:17;13.67;;;4.50;;
5871;SDS011;2962;51.312;7.378;2023-05-27T07:01:42;11.97;;;4.83;;
5871;SDS011;2962;51.312;7.378;2023-05-27T07:04:07;14.77;;;4.43;;
5871;SDS011;2962;51.312;7.378;2023-05-27T07:06:32;17.40;;;5.07;;
5871;SDS011;2962;51.312;7.378;2023-05-27T07:08:58;19.23;;;5.10;;
5871;SDS011;2962;51.312;7.378;2023-05-27T07:11:23;12.83;;;4.07;;
5871;SDS011;2962;51.312;7.378;2023-05-27T07:13:48;14.00;;;4.50;;
5871;SDS011;2962;51.312;7.378;2023-05-27T07:16:17;15.70;;;4.77;;
5871;SDS011;2962;51.312;7.378;2023-05-27T07:18:48;13.10;;;4.50;;
5871;SDS011;2962;51.312;7.378;2023-05-27T07:21:13;18.27;;;4.60;;
5871;SDS011;2962;51.312;7.378;2023-05-27T07:23:38;14.20;;;4.73;;
5871;SDS011;2962;51.312;7.378;2023-05-27T07:26:03;13.00;;;4.97;;
5871;SDS011;2962;51.312;7.378;2023-05-27T07:28:29;12.10;;;4.63;;
5871;SDS011;2962;51.312;7.378;2023-05-27T07:30:54;18.03;;;7.93;;
5871;SDS011;2962;51.312;7.378;2023-05-27T07:33:20;14.00;;;5.47;;
5871;SDS011;2962;51.312;7.378;2023-05-27T07:35:45;14.67;;;5.27;;
5871;SDS011;2962;51.312;7.378;2023-05-27T07:38:10;17.23;;;5.87;;
5871;SDS011;2962;51.312;7.378;2023-05-27T07:40:36;10.23;;;5.00;;
5871;SDS011;2962;51.312;7.378;2023-05-27T07:43:01;15.93;;;5.17;;
5871;SDS011;2962;51.312;7.378;2023-05-27T07:45:27;22.97;;;6.00;;
5871;SDS011;2962;51.312;7.378;2023-05-27T07:47:53;14.97;;;5.20;;
5871;SDS011;2962;51.312;7.378;2023-05-27T07:50:18;14.90;;;4.37;;
5871;SDS011;2962;51.312;7.378;2023-05-27T07:52:43;12.37;;;5.00;;
5871;SDS011;2962;51.312;7.378;2023-05-27T07:55:08;15.20;;;5.47;;
5871;SDS011;2962;51.312;7.378;2023-05-27T07:57:34;10.93;;;5.20;;
5871;SDS011;2962;51.312;7.378;2023-05-27T07:59:59;15.47;;;5.50;;
5871;SDS011;2962;51.312;7.378;2023-05-27T08:02:24;12.30;;;6.60;;
5871;SDS011;2962;51.312;7.378;2023-05-27T08:04:50;10.27;;;5.37;;
5871;SDS011;2962;51.312;7.378;2023-05-27T08:07:16;12.10;;;5.27;;
5871;SDS011;2962;51.312;7.378;2023-05-27T08:09:42;15.37;;;5.77;;
5871;SDS011;2962;51.312;7.378;2023-05-27T08:12:07;14.13;;;5.60;;
5871;SDS011;2962;51.312;7.378;2023-05-27T08:14:33;19.13;;;5.93;;
5871;SDS011;2962;51.312;7.378;2023-05-27T08:16:59;13.67;;;4.77;;
5871;SDS011;2962;51.312;7.378;2023-05-27T08:19:24;11.53;;;5.80;;
5871;SDS011;2962;51.312;7.378;2023-05-27T08:21:49;13.83;;;4.90;;
5871;SDS011;2962;51.312;7.378;2023-05-27T08:24:14;15.90;;;5.67;;
5871;SDS011;2962;51.312;7.378;2023-05-27T08:26:40;12.67;;;5.40;;
5871;SDS011;2962;51.312;7.378;2023-05-27T08:29:05;16.70;;;5.07;;
5871;SDS011;2962;51.312;7.378;2023-05-27T08:31:31;13.20;;;5.20;;
5871;SDS011;2962;51.312;7.378;2023-05-27T08:33:56;9.97;;;4.83;;
5871;SDS011;2962;51.312;7.378;2023-05-27T08:36:21;19.83;;;5.70;;
5871;SDS011;2962;51.312;7.378;2023-05-27T08:38:47;14.33;;;4.93;;
5871;SDS011;2962;51.312;7.378;2023-05-27T08:41:13;19.70;;;5.40;;
5871;SDS011;2962;51.312;7.378;2023-05-27T08:43:39;13.13;;;4.90;;
5871;SDS011;2962;51.312;7.378;2023-05-27T08:46:06;13.87;;;5.80;;
5871;SDS011;2962;51.312;7.378;2023-05-27T08:48:32;19.00;;;5.40;;
5871;SDS011;2962;51.312;7.378;2023-05-27T08:50:58;13.43;;;4.93;;
5871;SDS011;2962;51.312;7.378;2023-05-27T08:53:24;12.73;;;5.40;;
5871;SDS011;2962;51.312;7.378;2023-05-27T08:55:51;19.50;;;5.53;;
5871;SDS011;2962;51.312;7.378;2023-05-27T08:58:19;12.37;;;4.80;;
5871;SDS011;2962;51.312;7.378;2023-05-27T09:00:45;11.73;;;4.93;;
5871;SDS011;2962;51.312;7.378;2023-05-27T09:03:10;11.50;;;4.77;;
5871;SDS011;2962;51.312;7.378;2023-05-27T09:05:35;10.60;;;5.13;;
5871;SDS011;2962;51.312;7.378;2023-05-27T09:08:01;14.57;;;5.60;;
5871;SDS011;2962;51.312;7.378;2023-05-27T09:10:47;13.30;;;5.20;;
5871;SDS011;2962;51.312;7.378;2023-05-27T09:13:12;12.50;;;4.97;;
5871;SDS011;2962;51.312;7.378;2023-05-27T09:15:37;9.90;;;4.70;;
5871;SDS011;2962;51.312;7.378;2023-05-27T09:18:03;19.70;;;5.90;;
5871;SDS011;2962;51.312;7.378;2023-05-27T09:20:28;16.70;;;5.00;;
5871;SDS011;2962;51.312;7.378;2023-05-27T09:22:58;11.80;;;5.20;;
5871;SDS011;2962;51.312;7.378;2023-05-27T09:25:25;12.17;;;5.27;;
5871;SDS011;2962;51.312;7.378;2023-05-27T09:27:52;11.40;;;5.87;;
5871;SDS011;2962;51.312;7.378;2023-05-27T09:30:18;14.90;;;5.07;;
5871;SDS011;2962;51.312;7.378;2023-05-27T09:32:45;13.27;;;4.83;;
5871;SDS011;2962;51.312;7.378;2023-05-27T09:35:11;10.37;;;4.30;;
5871;SDS011;2962;51.312;7.378;2023-05-27T09:37:37;13.47;;;4.70;;
5871;SDS011;2962;51.312;7.378;2023-05-27T09:40:09;9.60;;;4.17;;
5871;SDS011;2962;51.312;7.378;2023-05-27T09:45:12;9.43;;;4.87;;
5871;SDS011;2962;51.312;7.378;2023-05-27T09:47:39;12.07;;;5.23;;
5871;SDS011;2962;51.312;7.378;2023-05-27T09:50:07;10.90;;;5.37;;
5871;SDS011;2962;51.312;7.378;2023-05-27T09:52:36;12.23;;;4.80;;
5871;SDS011;2962;51.312;7.378;2023-05-27T09:55:04;14.30;;;5.27;;
5871;SDS011;2962;51.312;7.378;2023-05-27T09:57:31;14.07;;;5.73;;
5871;SDS011;2962;51.312;7.378;2023-05-27T09:59:58;12.37;;;4.87;;
5871;SDS011;2962;51.312;7.378;2023-05-27T10:02:24;15.67;;;4.17;;
5871;SDS011;2962;51.312;7.378;2023-05-27T10:04:50;13.30;;;4.87;;
5871;SDS011;2962;51.312;7.378;2023-05-27T10:07:16;11.70;;;5.17;;
5871;SDS011;2962;51.312;7.378;2023-05-27T10:09:44;14.20;;;5.13;;
5871;SDS011;2962;51.312;7.378;2023-05-27T10:12:09;13.37;;;4.77;;
5871;SDS011;2962;51.312;7.378;2023-05-27T10:14:35;16.13;;;4.63;;
5871;SDS011;2962;51.312;7.378;2023-05-27T10:17:00;10.20;;;5.17;;
5871;SDS011;2962;51.312;7.378;2023-05-27T10:19:26;15.27;;;5.20;;
5871;SDS011;2962;51.312;7.378;2023-05-27T10:21:51;11.47;;;4.60;;
5871;SDS011;2962;51.312;7.378;2023-05-27T10:24:17;13.13;;;4.87;;
5871;SDS011;2962;51.312;7.378;2023-05-27T10:26:43;12.63;;;5.40;;
5871;SDS011;2962;51.312;7.378;2023-05-27T10:29:11;13.97;;;5.50;;
5871;SDS011;2962;51.312;7.378;2023-05-27T10:31:50;13.10;;;5.10;;
5871;SDS011;2962;51.312;7.378;2023-05-27T10:34:16;15.33;;;5.30;;
5871;SDS011;2962;51.312;7.378;2023-05-27T10:36:43;6.60;;;3.83;;
5871;SDS011;2962;51.312;7.378;2023-05-27T10:39:12;13.70;;;5.67;;
5871;SDS011;2962;51.312;7.378;2023-05-27T10:41:51;16.03;;;4.87;;
5871;SDS011;2962;51.312;7.378;2023-05-27T10:44:37;15.17;;;5.30;;
5871;SDS011;2962;51.312;7.378;2023-05-27T10:47:11;13.30;;;5.30;;
5871;SDS011;2962;51.312;7.378;2023-05-27T10:49:41;12.83;;;4.77;;
5871;SDS011;2962;51.312;7.378;2023-05-27T10:52:11;11.40;;;4.77;;
5871;SDS011;2962;51.312;7.378;2023-05-27T10:54:42;20.40;;;5.60;;
5871;SDS011;2962;51.312;7.378;2023-05-27T10:57:08;11.30;;;5.33;;
5871;SDS011;2962;51.312;7.378;2023-05-27T10:59:50;19.10;;;5.83;;
5871;SDS011;2962;51.312;7.378;2023-05-27T11:02:23;16.07;;;5.83;;
5871;SDS011;2962;51.312;7.378;2023-05-27T11:04:49;10.73;;;5.10;;
5871;SDS011;2962;51.312;7.378;2023-05-27T11:07:18;12.50;;;5.20;;
5871;SDS011;2962;51.312;7.378;2023-05-27T11:09:45;15.30;;;6.03;;
5871;SDS011;2962;51.312;7.378;2023-05-27T11:12:14;11.50;;;6.03;;
5871;SDS011;2962;51.312;7.378;2023-05-27T11:14:44;10.20;;;5.50;;
5871;SDS011;2962;51.312;7.378;2023-05-27T11:17:10;14.27;;;6.00;;
5871;SDS011;2962;51.312;7.378;2023-05-27T11:19:38;15.40;;;6.10;;
5871;SDS011;2962;51.312;7.378;2023-05-27T11:22:05;10.00;;;5.43;;
5871;SDS011;2962;51.312;7.378;2023-05-27T11:24:31;9.87;;;5.73;;
5871;SDS011;2962;51.312;7.378;2023-05-27T11:26:56;11.90;;;5.10;;
5871;SDS011;2962;51.312;7.378;2023-05-27T11:29:22;8.57;;;5.93;;
5871;SDS011;2962;51.312;7.378;2023-05-27T11:31:48;12.00;;;5.87;;
5871;SDS011;2962;51.312;7.378;2023-05-27T11:34:14;17.33;;;4.73;;
5871;SDS011;2962;51.312;7.378;2023-05-27T11:36:41;9.60;;;5.17;;
5871;SDS011;2962;51.312;7.378;2023-05-27T11:39:12;10.63;;;6.10;;
5871;SDS011;2962;51.312;7.378;2023-05-27T11:41:48;13.27;;;5.07;;
5871;SDS011;2962;51.312;7.378;2023-05-27T11:44:15;8.37;;;5.00;;
5871;SDS011;2962;51.312;7.378;2023-05-27T11:46:45;7.90;;;4.73;;
5871;SDS011;2962;51.312;7.378;2023-05-27T11:49:15;8.57;;;6.00;;
5871;SDS011;2962;51.312;7.378;2023-05-27T11:51:43;15.37;;;5.60;;
5871;SDS011;2962;51.312;7.378;2023-05-27T11:54:31;12.13;;;5.70;;
5871;SDS011;2962;51.312;7.378;2023-05-27T11:56:58;16.63;;;5.60;;
5871;SDS011;2962;51.312;7.378;2023-05-27T11:59:24;11.40;;;5.13;;
5871;SDS011;2962;51.312;7.378;2023-05-27T12:01:50;16.20;;;6.20;;
5871;SDS011;2962;51.312;7.378;2023-05-27T12:04:18;9.00;;;5.70;;
5871;SDS011;2962;51.312;7.378;2023-05-27T12:06:44;7.80;;;5.90;;
5871;SDS011;2962;51.312;7.378;2023-05-27T12:09:10;11.67;;;5.10;;
5871;SDS011;2962;51.312;7.378;2023-05-27T12:11:36;11.03;;;5.90;;
5871;SDS011;2962;51.312;7.378;2023-05-27T12:14:02;9.37;;;5.03;;
5871;SDS011;2962;51.312;7.378;2023-05-27T12:16:28;9.70;;;5.10;;
5871;SDS011;2962;51.312;7.378;2023-05-27T12:18:53;15.37;;;5.60;;
5871;SDS011;2962;51.312;7.378;2023-05-27T12:21:19;10.50;;;5.13;;
5871;SDS011;2962;51.312;7.378;2023-05-27T12:23:45;9.60;;;5.17;;
5871;SDS011;2962;51.312;7.378;2023-05-27T12:26:14;11.63;;;5.87;;
5871;SDS011;2962;51.312;7.378;2023-05-27T12:28:40;14.83;;;5.97;;
5871;SDS011;2962;51.312;7.378;2023-05-27T12:31:06;9.57;;;5.50;;
5871;SDS011;2962;51.312;7.378;2023-05-27T12:33:32;12.33;;;6.20;;
5871;SDS011;2962;51.312;7.378;2023-05-27T12:35:57;11.33;;;5.50;;
5871;SDS011;2962;51.312;7.378;2023-05-27T12:38:24;9.60;;;5.13;;
5871;SDS011;2962;51.312;7.378;2023-05-27T12:40:49;11.80;;;5.20;;
5871;SDS011;2962;51.312;7.378;2023-05-27T12:43:15;10.97;;;5.00;;
5871;SDS011;2962;51.312;7.378;2023-05-27T12:45:40;12.33;;;5.93;;
5871;SDS011;2962;51.312;7.378;2023-05-27T12:48:06;13.30;;;5.57;;
5871;SDS011;2962;51.312;7.378;2023-05-27T12:50:31;11.60;;;5.50;;
5871;SDS011;2962;51.312;7.378;2023-05-27T12:52:57;6.73;;;4.70;;
5871;SDS011;2962;51.312;7.378;2023-05-27T12:55:22;7.67;;;5.23;;
5871;SDS011;2962;51.312;7.378;2023-05-27T12:57:49;8.70;;;4.90;;
5871;SDS011;2962;51.312;7.378;2023-05-27T13:00:16;10.03;;;5.60;;
5871;SDS011;2962;51.312;7.378;2023-05-27T13:02:43;13.53;;;5.63;;
5871;SDS011;2962;51.312;7.378;2023-05-27T13:05:09;9.67;;;5.80;;
5871;SDS011;2962;51.312;7.378;2023-05-27T13:07:35;10.27;;;5.43;;
5871;SDS011;2962;51.312;7.378;2023-05-27T13:10:02;6.60;;;5.37;;
5871;SDS011;2962;51.312;7.378;2023-05-27T13:12:30;8.13;;;5.40;;
5871;SDS011;2962;51.312;7.378;2023-05-27T13:14:57;9.00;;;5.20;;
5871;SDS011;2962;51.312;7.378;2023-05-27T13:17:23;11.43;;;5.30;;
5871;SDS011;2962;51.312;7.378;2023-05-27T13:19:48;11.03;;;5.70;;
5871;SDS011;2962;51.312;7.378;2023-05-27T13:22:14;8.47;;;5.20;;
5871;SDS011;2962;51.312;7.378;2023-05-27T13:24:40;10.80;;;5.80;;
5871;SDS011;2962;51.312;7.378;2023-05-27T13:27:05;9.57;;;5.77;;
5871;SDS011;2962;51.312;7.378;2023-05-27T13:29:31;10.40;;;5.67;;
5871;SDS011;2962;51.312;7.378;2023-05-27T13:31:57;11.17;;;5.30;;
5871;SDS011;2962;51.312;7.378;2023-05-27T13:34:22;7.73;;;4.83;;
5871;SDS011;2962;51.312;7.378;2023-05-27T13:36:47;19.23;;;5.73;;
5871;SDS011;2962;51.312;7.378;2023-05-27T13:39:13;10.97;;;5.17;;
5871;SDS011;2962;51.312;7.378;2023-05-27T13:41:39;10.80;;;5.73;;
5871;SDS011;2962;51.312;7.378;2023-05-27T13:44:04;6.87;;;4.97;;
5871;SDS011;2962;51.312;7.378;2023-05-27T13:46:29;12.47;;;6.00;;
5871;SDS011;2962;51.312;7.378;2023-05-27T13:48:55;8.67;;;5.77;;
5871;SDS011;2962;51.312;7.378;2023-05-27T13:51:20;7.93;;;5.03;;
5871;SDS011;2962;51.312;7.378;2023-05-27T13:53:45;11.40;;;4.90;;
5871;SDS011;2962;51.312;7.378;2023-05-27T13:56:11;9.33;;;4.97;;
5871;SDS011;2962;51.312;7.378;2023-05-27T13:58:36;8.97;;;5.10;;
5871;SDS011;2962;51.312;7.378;2023-05-27T14:01:01;8.77;;;4.90;;
5871;SDS011;2962;51.312;7.378;2023-05-27T14:03:27;6.70;;;5.40;;
5871;SDS011;2962;51.312;7.378;2023-05-27T14:05:52;10.20;;;5.70;;
5871;SDS011;2962;51.312;7.378;2023-05-27T14:08:17;11.33;;;5.83;;
5871;SDS011;2962;51.312;7.378;2023-05-27T14:10:42;10.87;;;5.00;;
5871;SDS011;2962;51.312;7.378;2023-05-27T14:13:08;12.00;;;5.47;;
5871;SDS011;2962;51.312;7.378;2023-05-27T14:15:33;7.10;;;5.23;;
5871;SDS011;2962;51.312;7.378;2023-05-27T14:17:59;9.63;;;5.17;;
5871;SDS011;2962;51.312;7.378;2023-05-27T14:20:26;9.70;;;5.70;;
5871;SDS011;2962;51.312;7.378;2023-05-27T14:22:51;11.07;;;5.03;;
5871;SDS011;2962;51.312;7.378;2023-05-27T14:25:17;9.40;;;5.60;;
5871;SDS011;2962;51.312;7.378;2023-05-27T14:27:42;8.83;;;4.50;;
5871;SDS011;2962;51.312;7.378;2023-05-27T14:30:08;11.07;;;5.87;;
5871;SDS011;2962;51.312;7.378;2023-05-27T14:32:33;8.17;;;4.80;;
5871;SDS011;2962;51.312;7.378;2023-05-27T14:34:58;10.07;;;5.43;;
5871;SDS011;2962;51.312;7.378;2023-05-27T14:37:24;8.10;;;5.00;;
5871;SDS011;2962;51.312;7.378;2023-05-27T14:39:52;11.20;;;5.50;;
5871;SDS011;2962;51.312;7.378;2023-05-27T14:42:18;6.80;;;5.23;;
5871;SDS011;2962;51.312;7.378;2023-05-27T14:44:44;7.60;;;4.80;;
5871;SDS011;2962;51.312;7.378;2023-05-27T14:47:09;6.97;;;5.03;;
5871;SDS011;2962;51.312;7.378;2023-05-27T14:49:35;10.63;;;5.13;;
5871;SDS011;2962;51.312;7.378;2023-05-27T14:52:00;5.47;;;4.80;;
5871;SDS011;2962;51.312;7.378;2023-05-27T14:54:26;9.30;;;5.43;;
5871;SDS011;2962;51.312;7.378;2023-05-27T14:56:52;6.27;;;5.07;;
5871;SDS011;2962;51.312;7.378;2023-05-27T14:59:17;7.50;;;5.40;;
5871;SDS011;2962;51.312;7.378;2023-05-27T15:01:43;9.50;;;5.20;;
5871;SDS011;2962;51.312;7.378;2023-05-27T15:04:08;8.30;;;5.20;;
5871;SDS011;2962;51.312;7.378;2023-05-27T15:06:34;6.13;;;4.97;;
5871;SDS011;2962;51.312;7.378;2023-05-27T15:09:00;9.10;;;5.97;;